createdAt,value
2019-05-03T00:02:27.978Z,10.46
2019-05-03T00:05:26.930Z,10.54
2019-05-03T00:08:08.975Z,10.53
2019-05-03T00:10:39.575Z,10.38
2019-05-03T00:13:09.396Z,10.27
2019-05-03T00:15:57.634Z,10.30
2019-05-03T00:18:27.162Z,10.24
2019-05-03T00:20:56.347Z,10.15
2019-05-03T00:23:25.806Z,10.10
2019-05-03T00:25:55.034Z,10.04
2019-05-03T00:28:24.514Z,10.00
2019-05-03T00:30:53.738Z,9.93
2019-05-03T00:33:23.184Z,9.97
2019-05-03T00:36:22.344Z,9.92
2019-05-03T00:38:53.751Z,9.85
2019-05-03T00:41:22.977Z,9.66
2019-05-03T00:43:52.153Z,9.80
2019-05-03T00:46:22.002Z,9.92
2019-05-03T00:48:52.446Z,9.91
2019-05-03T00:51:22.580Z,9.90
2019-05-03T00:53:53.105Z,9.98
2019-05-03T00:56:22.448Z,9.98
2019-05-03T00:58:57.930Z,9.99
2019-05-03T01:01:27.197Z,9.92
2019-05-03T01:03:56.390Z,10.02
2019-05-03T01:06:25.907Z,9.97
2019-05-03T01:08:55.077Z,9.99
2019-05-03T01:11:24.259Z,9.95
2019-05-03T01:13:53.772Z,10.08
2019-05-03T01:16:23.864Z,10.14
2019-05-03T01:18:53.094Z,10.13
2019-05-03T01:21:22.768Z,10.17
2019-05-03T01:23:53.172Z,10.09
2019-05-03T01:26:22.865Z,10.23
2019-05-03T01:28:52.512Z,10.26
2019-05-03T01:31:22.937Z,10.08
2019-05-03T01:33:52.248Z,10.14
2019-05-03T01:36:22.796Z,10.22
2019-05-03T01:38:52.996Z,9.94
2019-05-03T01:41:22.450Z,9.95
2019-05-03T01:43:52.650Z,9.95
2019-05-03T01:46:22.817Z,9.91
2019-05-03T01:49:19.983Z,9.99
2019-05-03T01:52:12.793Z,9.97
2019-05-03T01:54:42.682Z,9.93
2019-05-03T01:57:11.937Z,10.02
2019-05-03T01:59:42.616Z,10.04
2019-05-03T02:02:22.931Z,10.03
2019-05-03T02:05:11.995Z,10.14
2019-05-03T02:07:42.274Z,9.93
2019-05-03T02:10:11.951Z,9.90
2019-05-03T02:12:41.792Z,9.83
2019-05-03T02:15:11.825Z,9.85
2019-05-03T02:17:42.703Z,9.85
2019-05-03T02:20:12.673Z,9.95
2019-05-03T02:22:42.767Z,9.94
2019-05-03T02:25:12.536Z,9.84
2019-05-03T02:27:42.440Z,9.85
2019-05-03T02:30:14.082Z,9.95
2019-05-03T02:32:43.981Z,9.94
2019-05-03T02:35:14.181Z,9.99
2019-05-03T02:37:45.570Z,9.99
2019-05-03T02:40:14.910Z,9.97
2019-05-03T02:42:46.791Z,9.90
2019-05-03T02:45:25.703Z,9.93
2019-05-03T02:48:05.976Z,9.88
2019-05-03T02:50:36.128Z,9.91
2019-05-03T02:53:05.912Z,9.95
2019-05-03T02:55:36.392Z,9.91
2019-05-03T02:58:05.953Z,9.92
2019-05-03T03:00:57.550Z,10.02
2019-05-03T03:03:27.707Z,9.98
2019-05-03T03:05:58.607Z,9.83
2019-05-03T03:08:32.816Z,9.93
2019-05-03T03:11:01.327Z,9.95
2019-05-03T03:13:32.446Z,10.04
2019-05-03T03:16:07.096Z,10.03
2019-05-03T03:18:37.678Z,9.92
2019-05-03T03:21:10.823Z,9.94
2019-05-03T03:24:06.103Z,9.94
2019-05-03T03:26:42.734Z,9.95
2019-05-03T03:29:10.887Z,9.90
2019-05-03T03:32:10.172Z,9.90
2019-05-03T03:34:53.294Z,9.98
2019-05-03T03:37:15.739Z,9.92
2019-05-03T03:39:45.874Z,9.94
2019-05-03T03:42:16.252Z,10.06
2019-05-03T03:44:45.829Z,10.01
2019-05-03T03:47:16.743Z,10.08
2019-05-03T03:49:48.062Z,10.07
2019-05-03T03:52:19.637Z,10.16
2019-05-03T03:54:50.076Z,10.03
2019-05-03T03:57:21.016Z,10.09
2019-05-03T03:59:50.318Z,10.15
2019-05-03T04:02:19.804Z,10.08
2019-05-03T04:04:49.696Z,9.83
2019-05-03T04:07:19.145Z,9.89
2019-05-03T04:09:48.409Z,9.85
2019-05-03T04:12:18.100Z,9.90
2019-05-03T04:15:05.635Z,9.89
2019-05-03T04:17:57.201Z,9.81
2019-05-03T04:20:29.933Z,9.76
2019-05-03T04:22:59.678Z,9.69
2019-05-03T04:25:29.417Z,9.83
2019-05-03T04:27:58.591Z,9.83
2019-05-03T04:30:27.770Z,9.75
2019-05-03T04:32:57.011Z,9.88
2019-05-03T04:35:26.766Z,9.90
2019-05-03T04:37:56.327Z,9.87
2019-05-03T04:40:26.210Z,9.83
2019-05-03T04:42:56.093Z,9.86
2019-05-03T04:45:25.849Z,9.88
2019-05-03T04:47:56.047Z,9.91
2019-05-03T04:50:25.918Z,9.91
2019-05-03T04:52:56.764Z,9.89
2019-05-03T04:55:26.943Z,9.86
2019-05-03T04:57:56.489Z,9.97
2019-05-03T05:00:26.083Z,10.04
2019-05-03T05:02:55.498Z,9.99
2019-05-03T05:05:26.145Z,10.04
2019-05-03T05:07:56.177Z,10.05
2019-05-03T05:10:26.304Z,10.09
2019-05-03T05:12:55.708Z,10.06
2019-05-03T05:15:26.420Z,10.05
2019-05-03T05:18:10.914Z,10.04
2019-05-03T05:20:50.483Z,10.00
2019-05-03T05:23:19.746Z,10.17
2019-05-03T05:25:55.047Z,10.22
2019-05-03T05:28:35.540Z,10.21
2019-05-03T05:31:04.849Z,10.10
2019-05-03T05:33:35.342Z,10.20
2019-05-03T05:36:04.876Z,10.23
2019-05-03T05:38:34.736Z,10.13
2019-05-03T05:41:05.339Z,10.29
2019-05-03T05:43:35.727Z,10.32
2019-05-03T05:46:05.397Z,10.34
2019-05-03T05:48:45.128Z,10.36
2019-05-03T05:51:15.948Z,10.28
2019-05-03T05:53:45.017Z,10.22
2019-05-03T05:56:24.935Z,10.20
2019-05-03T05:58:57.171Z,10.26
2019-05-03T06:01:29.828Z,10.20
2019-05-03T06:03:59.009Z,10.21
2019-05-03T06:06:35.404Z,10.20
2019-05-03T06:09:11.192Z,10.25
2019-05-03T06:11:45.335Z,10.20
2019-05-03T06:14:24.570Z,10.21
2019-05-03T06:17:01.538Z,10.29
2019-05-03T06:20:01.664Z,10.21
2019-05-03T06:22:44.804Z,10.11
2019-05-03T06:25:26.206Z,10.19
2019-05-03T06:27:54.960Z,10.18
2019-05-03T06:30:46.953Z,9.98
2019-05-03T06:33:16.175Z,10.17
2019-05-03T06:35:45.643Z,10.20
2019-05-03T06:38:15.303Z,10.16
2019-05-03T06:40:44.810Z,10.10
2019-05-03T06:43:15.731Z,10.05
2019-05-03T06:45:46.647Z,10.20
2019-05-03T06:48:17.709Z,10.35
2019-05-03T06:50:47.548Z,10.44
2019-05-03T06:53:19.004Z,10.40
2019-05-03T06:55:48.581Z,10.39
2019-05-03T06:58:30.543Z,10.38
2019-05-03T07:01:05.230Z,10.33
2019-05-03T07:03:44.644Z,10.39
2019-05-03T07:06:40.669Z,10.41
2019-05-03T07:09:24.937Z,10.39
2019-05-03T07:11:55.511Z,10.30
2019-05-03T07:14:26.604Z,10.44
2019-05-03T07:16:55.827Z,10.45
2019-05-03T07:19:25.155Z,10.48
2019-05-03T07:21:54.677Z,10.48
2019-05-03T07:24:25.017Z,10.43
2019-05-03T07:26:55.113Z,10.43
2019-05-03T07:29:25.509Z,10.43
2019-05-03T07:31:55.086Z,10.53
2019-05-03T07:34:24.871Z,10.63
2019-05-03T07:36:55.539Z,10.61
2019-05-03T07:39:24.752Z,10.69
2019-05-03T07:41:55.103Z,10.67
2019-05-03T07:44:25.555Z,10.64
2019-05-03T07:46:55.464Z,10.84
2019-05-03T07:49:25.036Z,10.95
2019-05-03T07:51:55.328Z,10.98
2019-05-03T07:54:25.304Z,10.98
2019-05-03T07:57:05.331Z,11.05
2019-05-03T07:59:35.533Z,11.12
2019-05-03T08:02:05.638Z,11.21
2019-05-03T08:04:35.801Z,11.06
2019-05-03T08:07:05.346Z,11.08
2019-05-03T08:09:35.025Z,11.19
2019-05-03T08:12:05.071Z,11.27
2019-05-03T08:14:35.642Z,11.21
2019-05-03T08:17:05.274Z,11.30
2019-05-03T08:19:35.807Z,11.36
2019-05-03T08:22:05.456Z,11.39
2019-05-03T08:24:34.799Z,11.31
2019-05-03T08:27:05.032Z,11.43
2019-05-03T08:29:35.181Z,11.35
2019-05-03T08:32:24.554Z,11.38
2019-05-03T08:35:12.125Z,11.44
2019-05-03T08:37:46.002Z,11.49
2019-05-03T08:40:15.680Z,11.58
2019-05-03T08:42:44.932Z,11.64
2019-05-03T08:45:14.800Z,11.62
2019-05-03T08:47:45.081Z,11.76
2019-05-03T08:50:20.931Z,11.75
2019-05-03T08:52:45.781Z,11.93
2019-05-03T08:55:15.903Z,12.14
2019-05-03T08:57:45.328Z,12.18
2019-05-03T09:00:17.026Z,12.07
2019-05-03T09:02:46.512Z,12.14
2019-05-03T09:05:18.548Z,12.06
2019-05-03T09:07:46.884Z,11.90
2019-05-03T09:10:35.354Z,11.73
2019-05-03T09:13:06.761Z,11.70
2019-05-03T09:15:36.200Z,11.52
2019-05-03T09:18:06.180Z,11.53
2019-05-03T09:20:35.765Z,11.49
2019-05-03T09:23:05.608Z,11.34
2019-05-03T09:25:38.762Z,11.20
2019-05-03T09:28:07.964Z,11.11
2019-05-03T09:30:37.421Z,11.00
2019-05-03T09:33:09.199Z,10.71
2019-05-03T09:35:38.671Z,10.76
2019-05-03T09:38:07.851Z,10.72
2019-05-03T09:40:37.104Z,10.55
2019-05-03T09:43:06.309Z,10.66
2019-05-03T09:45:35.516Z,10.66
2019-05-03T09:48:05.646Z,10.54
2019-05-03T09:50:35.869Z,10.69
2019-05-03T09:53:05.648Z,10.75
2019-05-03T09:55:38.517Z,10.64
2019-05-03T09:58:07.775Z,10.61
2019-05-03T10:00:37.046Z,10.67
2019-05-03T10:03:06.318Z,10.66
2019-05-03T10:05:35.851Z,10.79
2019-05-03T10:08:05.423Z,10.98
2019-05-03T10:10:52.595Z,11.04
2019-05-03T10:13:23.886Z,10.97
2019-05-03T10:15:54.923Z,11.02
2019-05-03T10:18:25.508Z,11.19
2019-05-03T10:20:56.127Z,11.35
2019-05-03T10:23:41.291Z,11.38
2019-05-03T10:26:10.718Z,11.55
2019-05-03T10:28:39.903Z,11.31
2019-05-03T10:31:09.137Z,11.45
2019-05-03T10:33:45.902Z,11.43
2019-05-03T10:36:15.597Z,11.42
2019-05-03T10:38:45.949Z,11.52
2019-05-03T10:41:15.409Z,11.45
2019-05-03T10:43:45.330Z,11.49
2019-05-03T10:46:15.975Z,11.58
2019-05-03T10:48:45.473Z,11.57
2019-05-03T10:51:15.762Z,11.61
2019-05-03T10:53:47.660Z,11.69
2019-05-03T10:56:24.554Z,11.80
2019-05-03T10:59:01.493Z,11.72
2019-05-03T11:01:48.146Z,11.57
2019-05-03T11:04:17.648Z,11.50
2019-05-03T11:06:46.938Z,11.72
2019-05-03T11:09:16.112Z,11.91
2019-05-03T11:11:45.687Z,12.23
2019-05-03T11:14:15.059Z,12.33
2019-05-03T11:16:46.077Z,12.28
2019-05-03T11:19:15.254Z,12.57
2019-05-03T11:21:45.557Z,12.47
2019-05-03T11:24:15.028Z,12.53
2019-05-03T11:26:46.033Z,12.74
2019-05-03T11:29:15.964Z,12.74
2019-05-03T11:31:59.419Z,12.85
2019-05-03T11:34:35.490Z,13.21
2019-05-03T11:37:41.697Z,13.51
2019-05-03T11:40:11.793Z,13.64
2019-05-03T11:42:40.975Z,13.44
2019-05-03T11:45:10.588Z,13.22
2019-05-03T11:47:39.769Z,13.18
2019-05-03T11:50:08.997Z,13.11
2019-05-03T11:52:38.472Z,13.10
2019-05-03T11:55:11.286Z,12.86
2019-05-03T11:57:39.094Z,13.03
2019-05-03T12:00:10.504Z,12.75
2019-05-03T12:03:05.033Z,12.54
2019-05-03T12:05:34.460Z,12.61
2019-05-03T12:08:05.411Z,12.40
2019-05-03T12:10:50.462Z,12.43
2019-05-03T12:13:10.732Z,12.35
2019-05-03T12:15:40.070Z,12.45
2019-05-03T12:18:10.554Z,12.37
2019-05-03T12:20:41.270Z,12.47
2019-05-03T12:23:11.496Z,12.49
2019-05-03T12:25:42.393Z,12.25
2019-05-03T12:28:15.181Z,12.20
2019-05-03T12:30:44.855Z,12.24
2019-05-03T12:33:15.435Z,12.26
2019-05-03T12:35:46.262Z,12.25
2019-05-03T12:38:16.508Z,12.34
2019-05-03T12:40:45.892Z,12.43
2019-05-03T12:43:15.185Z,12.54
2019-05-03T12:45:44.493Z,12.54
2019-05-03T12:48:15.523Z,12.50
2019-05-03T12:50:46.286Z,12.57
2019-05-03T12:53:16.097Z,12.67
2019-05-03T12:55:45.269Z,12.70
2019-05-03T12:58:15.084Z,12.70
2019-05-03T13:01:01.859Z,12.69
2019-05-03T13:03:56.733Z,12.62
2019-05-03T13:06:25.962Z,12.61
2019-05-03T13:08:55.188Z,12.49
2019-05-03T13:11:25.126Z,12.29
2019-05-03T13:13:55.677Z,12.21
2019-05-03T13:16:25.157Z,12.14
2019-05-03T13:18:55.349Z,12.14
2019-05-03T13:21:25.250Z,12.01
2019-05-03T13:23:54.920Z,12.05
2019-05-03T13:26:25.395Z,12.13
2019-05-03T13:28:55.364Z,12.14
2019-05-03T13:31:25.129Z,12.28
2019-05-03T13:33:54.944Z,12.24
2019-05-03T13:36:25.322Z,12.33
2019-05-03T13:39:09.902Z,12.37
2019-05-03T13:41:25.915Z,12.34
2019-05-03T13:43:55.422Z,12.32
2019-05-03T13:46:24.749Z,12.39
2019-05-03T13:48:55.440Z,12.70
2019-05-03T13:51:25.376Z,12.29
2019-05-03T13:53:55.163Z,12.37
2019-05-03T13:56:24.742Z,12.41
2019-05-03T13:58:55.116Z,12.61
2019-05-03T14:01:25.240Z,12.62
2019-05-03T14:03:54.663Z,12.52
2019-05-03T14:06:24.702Z,12.37
2019-05-03T14:08:54.814Z,12.43
2019-05-03T14:11:25.397Z,12.49
2019-05-03T14:13:55.194Z,12.55
2019-05-03T14:16:24.892Z,12.61
2019-05-03T14:18:57.587Z,12.57
2019-05-03T14:21:34.561Z,12.55
2019-05-03T14:24:10.191Z,12.11
2019-05-03T14:26:40.407Z,12.14
2019-05-03T14:29:09.668Z,11.99
2019-05-03T14:31:38.864Z,11.81
2019-05-03T14:34:08.160Z,11.89
2019-05-03T14:36:37.388Z,11.76
2019-05-03T14:39:09.895Z,11.73
2019-05-03T14:41:39.872Z,11.75
2019-05-03T14:44:09.050Z,11.75
2019-05-03T14:46:38.656Z,11.83
2019-05-03T14:49:07.830Z,11.86
2019-05-03T14:51:37.182Z,11.95
2019-05-03T14:54:07.538Z,11.84
2019-05-03T14:56:45.359Z,11.88
2019-05-03T14:59:48.225Z,11.80
2019-05-03T15:02:43.601Z,11.51
2019-05-03T15:05:07.542Z,11.41
2019-05-03T15:07:36.728Z,11.31
2019-05-03T15:10:06.294Z,11.25
2019-05-03T15:12:36.096Z,11.27
2019-05-03T15:15:05.996Z,11.33
2019-05-03T15:17:35.578Z,11.29
2019-05-03T15:20:05.304Z,11.20
2019-05-03T15:22:34.775Z,11.29
2019-05-03T15:25:05.046Z,11.28
2019-05-03T15:27:35.410Z,11.34
2019-05-03T15:30:04.955Z,11.49
2019-05-03T15:32:35.354Z,11.37
2019-05-03T15:35:04.981Z,11.47
2019-05-03T15:37:35.791Z,11.46
2019-05-03T15:40:06.201Z,11.42
2019-05-03T15:42:36.381Z,11.34
2019-05-03T15:45:28.064Z,11.33
2019-05-03T15:48:28.147Z,11.43
2019-05-03T15:50:57.333Z,11.52
2019-05-03T15:53:26.572Z,11.51
2019-05-03T15:55:55.751Z,11.64
2019-05-03T15:58:25.284Z,11.71
2019-05-03T16:00:55.355Z,11.75
2019-05-03T16:03:25.373Z,11.64
2019-05-03T16:05:55.609Z,11.59
2019-05-03T16:08:25.222Z,11.57
2019-05-03T16:10:55.106Z,11.63
2019-05-03T16:13:25.293Z,11.57
2019-05-03T16:15:55.484Z,11.60
2019-05-03T16:18:24.809Z,11.41
2019-05-03T16:20:54.630Z,11.47
2019-05-03T16:23:25.086Z,11.30
2019-05-03T16:25:54.601Z,11.35
2019-05-03T16:28:36.603Z,11.26
2019-05-03T16:31:11.598Z,11.23
2019-05-03T16:33:40.785Z,11.32
2019-05-03T16:36:09.960Z,11.32
2019-05-03T16:38:39.482Z,11.27
2019-05-03T16:41:08.671Z,11.21
2019-05-03T16:43:38.548Z,11.25
2019-05-03T16:46:07.740Z,11.29
2019-05-03T16:48:36.995Z,11.32
2019-05-03T16:51:06.186Z,11.33
2019-05-03T16:53:35.439Z,11.31
2019-05-03T16:56:04.950Z,11.25
2019-05-03T16:58:35.364Z,11.13
2019-05-03T17:01:04.693Z,11.21
2019-05-03T17:03:47.747Z,11.25
2019-05-03T17:06:28.178Z,11.34
2019-05-03T17:09:26.307Z,11.39
2019-05-03T17:12:15.004Z,11.43
2019-05-03T17:14:43.939Z,11.24
2019-05-03T17:17:14.827Z,11.17
2019-05-03T17:19:44.873Z,11.31
2019-05-03T17:22:14.875Z,11.39
2019-05-03T17:24:45.345Z,11.44
2019-05-03T17:27:14.552Z,11.47
2019-05-03T17:29:44.507Z,11.60
2019-05-03T17:32:15.332Z,11.63
2019-05-03T17:34:45.380Z,11.51
2019-05-03T17:37:14.898Z,11.42
2019-05-03T17:40:09.167Z,11.44
2019-05-03T17:42:55.895Z,11.43
2019-05-03T17:45:30.527Z,11.54
2019-05-03T17:47:59.706Z,11.64
2019-05-03T17:50:28.920Z,11.57
2019-05-03T17:53:12.427Z,11.52
2019-05-03T17:55:59.190Z,11.57
2019-05-03T17:58:45.772Z,11.60
2019-05-03T18:01:40.109Z,11.56
2019-05-03T18:04:25.213Z,11.56
2019-05-03T18:07:14.935Z,11.51
2019-05-03T18:09:44.874Z,11.53
2019-05-03T18:12:15.074Z,11.53
2019-05-03T18:14:45.046Z,11.46
2019-05-03T18:17:14.782Z,11.47
2019-05-03T18:19:44.840Z,11.50
2019-05-03T18:22:15.298Z,11.42
2019-05-03T18:24:45.565Z,11.32
2019-05-03T18:27:15.097Z,11.32
2019-05-03T18:29:44.994Z,11.37
2019-05-03T18:32:14.694Z,11.36
2019-05-03T18:34:45.367Z,11.32
2019-05-03T18:37:15.340Z,11.33
2019-05-03T18:39:45.353Z,11.38
2019-05-03T18:42:20.157Z,11.47
2019-05-03T18:44:52.301Z,11.30
2019-05-03T18:47:25.157Z,11.30
2019-05-03T18:49:55.243Z,11.47
2019-05-03T18:52:24.430Z,11.59
2019-05-03T18:54:55.164Z,11.55
2019-05-03T18:57:25.603Z,11.57
2019-05-03T18:59:55.702Z,11.54
2019-05-03T19:02:25.569Z,11.50
2019-05-03T19:04:56.127Z,11.32
2019-05-03T19:07:50.047Z,11.38
2019-05-03T19:10:47.411Z,11.43
2019-05-03T19:13:23.928Z,11.42
2019-05-03T19:15:55.059Z,11.37
2019-05-03T19:18:35.897Z,11.34
2019-05-03T19:21:05.152Z,11.28
2019-05-03T19:23:35.474Z,11.28
2019-05-03T19:26:05.564Z,11.24
2019-05-03T19:28:37.165Z,11.12
2019-05-03T19:31:06.682Z,11.14
2019-05-03T19:33:37.318Z,11.03
2019-05-03T19:36:06.982Z,11.08
2019-05-03T19:38:36.535Z,11.02
2019-05-03T19:41:05.716Z,11.12
2019-05-03T19:43:35.557Z,11.17
2019-05-03T19:46:07.157Z,11.22
2019-05-03T19:48:35.903Z,11.34
2019-05-03T19:51:05.859Z,11.34
2019-05-03T19:53:47.693Z,11.32
2019-05-03T19:56:17.669Z,11.37
2019-05-03T19:58:46.911Z,11.35
2019-05-03T20:01:35.118Z,11.40
2019-05-03T20:04:24.563Z,11.42
2019-05-03T20:06:59.845Z,11.39
2019-05-03T20:09:29.743Z,11.34
2019-05-03T20:11:59.256Z,11.33
2019-05-03T20:14:28.810Z,11.33
2019-05-03T20:16:58.269Z,11.29
2019-05-03T20:19:27.532Z,11.34
2019-05-03T20:21:56.864Z,11.33
2019-05-03T20:24:26.057Z,11.42
2019-05-03T20:26:55.521Z,11.25
2019-05-03T20:29:25.128Z,11.25
2019-05-03T20:31:55.179Z,11.19
2019-05-03T20:34:24.979Z,11.22
2019-05-03T20:36:54.867Z,11.27
2019-05-03T20:39:25.450Z,11.04
2019-05-03T20:41:55.136Z,11.00
2019-05-03T20:44:35.244Z,10.94
2019-05-03T20:47:18.366Z,10.99
2019-05-03T20:50:06.507Z,10.98
2019-05-03T20:52:35.786Z,10.86
2019-05-03T20:55:05.373Z,10.96
2019-05-03T20:57:35.334Z,10.96
2019-05-03T21:00:05.097Z,10.84
2019-05-03T21:02:34.688Z,10.91
2019-05-03T21:05:04.377Z,11.04
2019-05-03T21:07:35.165Z,11.00
2019-05-03T21:10:06.064Z,10.93
2019-05-03T21:12:35.382Z,10.82
2019-05-03T21:15:06.851Z,10.79
2019-05-03T21:17:52.597Z,10.83
2019-05-03T21:20:39.301Z,10.87
2019-05-03T21:23:09.735Z,10.90
2019-05-03T21:26:05.534Z,10.97
2019-05-03T21:28:16.044Z,10.99
2019-05-03T21:30:45.425Z,10.97
2019-05-03T21:33:15.766Z,10.73
2019-05-03T21:35:45.338Z,10.69
2019-05-03T21:38:14.552Z,10.79
2019-05-03T21:40:45.302Z,10.73
2019-05-03T21:43:15.235Z,10.83
2019-05-03T21:45:49.659Z,10.85
2019-05-03T21:48:25.411Z,10.90
2019-05-03T21:50:54.698Z,10.79
2019-05-03T21:53:25.130Z,10.77
2019-05-03T21:55:54.718Z,10.74
2019-05-03T21:58:24.999Z,10.68
2019-05-03T22:01:00.018Z,10.68
2019-05-03T22:03:29.490Z,10.64
2019-05-03T22:05:58.749Z,10.59
2019-05-03T22:08:27.958Z,10.53
2019-05-03T22:10:57.154Z,10.57
2019-05-03T22:13:26.421Z,10.65
2019-05-03T22:16:01.315Z,10.63
2019-05-03T22:18:31.510Z,10.60
2019-05-03T22:21:22.870Z,10.59
2019-05-03T22:24:05.191Z,10.71
2019-05-03T22:26:51.357Z,10.78
2019-05-03T22:29:20.898Z,10.76
2019-05-03T22:31:50.209Z,10.80
2019-05-03T22:34:19.477Z,10.84
2019-05-03T22:36:48.970Z,10.87
2019-05-03T22:39:18.203Z,10.83
2019-05-03T22:41:47.427Z,10.74
2019-05-03T22:44:17.184Z,10.77
2019-05-03T22:46:46.441Z,10.80
2019-05-03T22:49:16.385Z,10.77
2019-05-03T22:51:45.882Z,10.85
2019-05-03T22:54:15.513Z,10.84
2019-05-03T22:56:45.005Z,10.82
2019-05-03T22:59:14.847Z,10.80
2019-05-03T23:01:45.757Z,10.81
2019-05-03T23:04:15.268Z,10.85
2019-05-03T23:06:47.089Z,10.79
2019-05-03T23:09:16.044Z,10.80
2019-05-03T23:11:45.352Z,10.86
2019-05-03T23:14:15.267Z,10.87
2019-05-03T23:16:45.138Z,10.89
2019-05-03T23:19:14.881Z,10.76
2019-05-03T23:21:55.987Z,10.69
2019-05-03T23:24:25.184Z,10.61
2019-05-03T23:26:54.465Z,10.65
2019-05-03T23:29:24.009Z,10.65
2019-05-03T23:31:53.269Z,10.65
2019-05-03T23:34:24.764Z,10.47
2019-05-03T23:36:54.803Z,10.43
2019-05-03T23:39:24.940Z,10.39
2019-05-03T23:41:55.775Z,10.30
2019-05-03T23:44:25.048Z,10.39
2019-05-03T23:47:05.221Z,10.39
2019-05-03T23:49:35.270Z,10.39
2019-05-03T23:52:26.707Z,10.38
2019-05-03T23:54:57.060Z,10.26
2019-05-03T23:57:26.257Z,10.18
2019-05-03T23:59:56.890Z,10.29
